createdAt,value
2022-11-05T00:00:05.226Z,6.13
2022-11-05T00:02:55.867Z,5.53
2022-11-05T00:05:46.717Z,6.30
2022-11-05T00:08:37.026Z,5.60
2022-11-05T00:11:17.687Z,6.67
2022-11-05T00:14:08.857Z,6.10
2022-11-05T00:16:43.953Z,5.47
2022-11-05T00:19:16.728Z,6.17
2022-11-05T00:22:07.290Z,5.80
2022-11-05T00:24:57.755Z,5.93
2022-11-05T00:27:32.993Z,5.30
2022-11-05T00:30:05.821Z,5.53
2022-11-05T00:32:38.160Z,6.57
2022-11-05T00:35:10.140Z,4.60
2022-11-05T00:37:47.134Z,5.30
2022-11-05T00:40:21.640Z,6.43
2022-11-05T00:43:12.334Z,4.97
2022-11-05T00:45:44.464Z,4.40
2022-11-05T00:48:35.511Z,6.53
2022-11-05T00:51:08.098Z,5.80
2022-11-05T00:53:40.044Z,5.23
2022-11-05T00:56:11.919Z,6.23
2022-11-05T00:58:43.727Z,5.80
2022-11-05T01:01:15.842Z,5.77
2022-11-05T01:03:51.624Z,5.60
2022-11-05T01:06:24.028Z,5.73
2022-11-05T01:08:55.948Z,5.53
2022-11-05T01:11:33.824Z,5.87
2022-11-05T01:14:08.510Z,5.20
2022-11-05T01:16:40.744Z,5.47
2022-11-05T01:19:12.719Z,6.83
2022-11-05T01:21:44.642Z,5.63
2022-11-05T01:24:16.510Z,5.67
2022-11-05T01:26:48.400Z,6.37
2022-11-05T01:29:20.381Z,5.90
2022-11-05T01:31:52.213Z,5.27
2022-11-05T01:34:24.021Z,5.10
2022-11-05T01:36:55.839Z,5.50
2022-11-05T01:39:27.687Z,5.50
2022-11-05T01:41:59.531Z,5.50
2022-11-05T01:44:52.797Z,6.90
2022-11-05T01:47:30.212Z,5.30
2022-11-05T01:50:06.215Z,6.20
2022-11-05T01:52:38.017Z,5.90
2022-11-05T01:55:10.581Z,5.50
2022-11-05T01:57:42.712Z,5.20
2022-11-05T02:00:15.911Z,5.00
2022-11-05T02:02:48.098Z,6.80
2022-11-05T02:05:20.092Z,6.37
2022-11-05T02:07:52.300Z,5.20
2022-11-05T02:10:24.425Z,5.83
2022-11-05T02:12:56.393Z,4.97
2022-11-05T02:15:48.143Z,6.27
2022-11-05T02:18:44.487Z,6.70
2022-11-05T02:21:37.239Z,6.03
2022-11-05T02:24:33.499Z,6.60
2022-11-05T02:27:11.767Z,6.00
2022-11-05T02:30:08.578Z,7.27
2022-11-05T02:32:47.206Z,6.87
2022-11-05T02:35:27.000Z,6.50
2022-11-05T02:38:17.123Z,6.50
2022-11-05T02:41:25.706Z,6.60
2022-11-05T02:44:07.844Z,6.63
2022-11-05T02:46:55.614Z,6.67
2022-11-05T02:49:36.558Z,7.57
2022-11-05T02:52:20.358Z,6.83
2022-11-05T02:54:54.258Z,6.83
2022-11-05T02:57:29.192Z,6.07
2022-11-05T03:00:06.284Z,6.13
2022-11-05T03:02:38.390Z,5.70
2022-11-05T03:05:10.774Z,5.80
2022-11-05T03:07:48.591Z,7.03
2022-11-05T03:10:26.348Z,5.30
2022-11-05T03:13:15.452Z,5.80
2022-11-05T03:15:59.117Z,5.67
2022-11-05T03:18:33.707Z,6.20
2022-11-05T03:21:09.455Z,6.30
2022-11-05T03:23:56.194Z,5.57
2022-11-05T03:26:40.313Z,5.10
2022-11-05T03:29:18.142Z,5.90
2022-11-05T03:31:52.276Z,5.83
2022-11-05T03:34:30.502Z,5.33
2022-11-05T03:37:04.105Z,6.00
2022-11-05T03:39:47.713Z,7.97
2022-11-05T03:42:25.711Z,6.40
2022-11-05T03:45:00.040Z,6.53
2022-11-05T03:47:35.446Z,5.87
2022-11-05T03:50:15.558Z,6.13
2022-11-05T03:53:17.159Z,5.20
2022-11-05T03:55:59.973Z,6.70
2022-11-05T03:58:32.074Z,6.40
2022-11-05T04:01:04.153Z,5.67
2022-11-05T04:03:36.652Z,5.20
2022-11-05T04:06:28.966Z,5.80
2022-11-05T04:09:19.319Z,5.83
2022-11-05T04:12:10.421Z,6.30
2022-11-05T04:14:42.366Z,6.43
2022-11-05T04:17:14.340Z,6.43
2022-11-05T04:20:04.938Z,6.97
2022-11-05T04:22:55.281Z,6.97
2022-11-05T04:25:27.181Z,6.30
2022-11-05T04:28:02.916Z,7.20
2022-11-05T04:30:34.747Z,6.90
2022-11-05T04:33:11.988Z,5.90
2022-11-05T04:35:46.955Z,6.57
2022-11-05T04:38:19.895Z,6.10
2022-11-05T04:40:51.771Z,5.70
2022-11-05T04:43:24.021Z,5.53
2022-11-05T04:45:56.066Z,6.17
2022-11-05T04:48:27.869Z,5.60
2022-11-05T04:50:59.612Z,5.60
2022-11-05T04:53:31.621Z,6.07
2022-11-05T04:56:15.682Z,5.80
2022-11-05T04:58:47.845Z,5.70
2022-11-05T05:01:22.305Z,6.47
2022-11-05T05:03:55.009Z,6.20
2022-11-05T05:06:26.923Z,6.03
2022-11-05T05:08:58.984Z,6.53
2022-11-05T05:11:30.907Z,6.10
2022-11-05T05:14:02.824Z,5.63
2022-11-05T05:16:34.699Z,5.73
2022-11-05T05:19:06.625Z,5.70
2022-11-05T05:21:38.780Z,5.87
2022-11-05T05:24:13.878Z,5.67
2022-11-05T05:26:48.462Z,6.20
2022-11-05T05:29:20.302Z,5.90
2022-11-05T05:31:52.137Z,6.23
2022-11-05T05:34:23.940Z,5.80
2022-11-05T05:36:55.692Z,5.63
2022-11-05T05:39:27.650Z,5.83
2022-11-05T05:41:59.445Z,6.57
2022-11-05T05:44:31.365Z,6.57
2022-11-05T05:47:03.298Z,6.97
2022-11-05T05:49:35.253Z,5.90
2022-11-05T05:52:07.155Z,6.40
2022-11-05T05:54:42.719Z,6.30
2022-11-05T05:57:15.087Z,6.70
2022-11-05T05:59:47.297Z,6.80
2022-11-05T06:02:19.281Z,7.50
2022-11-05T06:04:51.165Z,6.33
2022-11-05T06:07:23.404Z,8.33
2022-11-05T06:09:55.314Z,6.93
2022-11-05T06:12:29.512Z,6.67
2022-11-05T06:15:01.482Z,7.37
2022-11-05T06:17:33.334Z,6.83
2022-11-05T06:20:05.769Z,6.60
2022-11-05T06:22:38.393Z,6.17
2022-11-05T06:25:10.517Z,6.50
2022-11-05T06:27:42.361Z,6.80
2022-11-05T06:30:14.417Z,5.70
2022-11-05T06:32:46.323Z,5.77
2022-11-05T06:35:18.137Z,5.53
2022-11-05T06:37:50.023Z,5.20
2022-11-05T06:40:21.754Z,5.70
2022-11-05T06:42:54.815Z,6.30
2022-11-05T06:45:26.726Z,4.60
2022-11-05T06:47:59.648Z,5.30
2022-11-05T06:50:31.436Z,5.17
2022-11-05T06:53:04.145Z,5.73
2022-11-05T06:55:36.291Z,5.43
2022-11-05T06:58:08.174Z,4.90
2022-11-05T07:00:40.194Z,4.90
2022-11-05T07:03:13.433Z,5.63
2022-11-05T07:05:48.018Z,5.57
2022-11-05T07:08:19.992Z,5.63
2022-11-05T07:10:51.814Z,4.30
2022-11-05T07:13:23.730Z,4.27
2022-11-05T07:15:58.302Z,4.47
2022-11-05T07:18:30.189Z,4.27
2022-11-05T07:21:02.112Z,5.33
2022-11-05T07:23:33.870Z,5.67
2022-11-05T07:26:05.725Z,6.20
2022-11-05T07:28:37.636Z,4.40
2022-11-05T07:31:09.433Z,5.20
2022-11-05T07:33:41.291Z,5.10
2022-11-05T07:36:14.766Z,5.20
2022-11-05T07:38:46.590Z,5.73
2022-11-05T07:41:18.819Z,4.90
2022-11-05T07:43:50.799Z,5.70
2022-11-05T07:46:22.690Z,5.30
2022-11-05T07:48:54.979Z,6.60
2022-11-05T07:51:26.953Z,5.50
2022-11-05T07:53:58.871Z,4.50
2022-11-05T07:56:30.700Z,4.23
2022-11-05T07:59:02.904Z,5.90
2022-11-05T08:01:34.805Z,4.60
2022-11-05T08:04:06.894Z,6.20
2022-11-05T08:06:38.926Z,4.27
2022-11-05T08:09:10.977Z,4.20
2022-11-05T08:11:42.899Z,5.27
2022-11-05T08:14:14.773Z,4.80
2022-11-05T08:16:46.626Z,3.40
2022-11-05T08:19:18.566Z,5.40
2022-11-05T08:21:50.504Z,4.40
2022-11-05T08:24:22.492Z,4.27
2022-11-05T08:26:54.352Z,4.87
2022-11-05T08:29:26.255Z,4.50
2022-11-05T08:31:58.227Z,4.37
2022-11-05T08:34:30.082Z,4.60
2022-11-05T08:37:02.311Z,4.90
2022-11-05T08:39:34.382Z,3.90
2022-11-05T08:42:06.139Z,4.27
2022-11-05T08:44:37.995Z,3.97
2022-11-05T08:47:09.941Z,4.50
2022-11-05T08:49:41.788Z,4.57
2022-11-05T08:52:13.727Z,4.70
2022-11-05T08:54:45.831Z,4.50
2022-11-05T08:57:17.751Z,4.30
2022-11-05T08:59:49.628Z,3.93
2022-11-05T09:02:21.597Z,4.40
2022-11-05T09:04:53.502Z,4.43
2022-11-05T09:07:25.546Z,4.67
2022-11-05T09:09:57.643Z,4.70
2022-11-05T09:12:29.486Z,4.17
2022-11-05T09:15:01.327Z,3.80
2022-11-05T09:17:33.372Z,4.40
2022-11-05T09:20:07.028Z,3.50
2022-11-05T09:22:43.221Z,3.87
2022-11-05T09:25:16.008Z,4.03
2022-11-05T09:27:48.025Z,4.10
2022-11-05T09:30:20.240Z,4.07
2022-11-05T09:32:52.231Z,4.07
2022-11-05T09:35:24.101Z,4.20
2022-11-05T09:38:00.809Z,3.70
2022-11-05T09:40:38.762Z,3.43
2022-11-05T09:43:19.154Z,4.90
2022-11-05T09:45:54.712Z,4.40
2022-11-05T09:48:29.506Z,4.27
2022-11-05T09:51:01.484Z,4.30
2022-11-05T09:53:36.971Z,3.87
2022-11-05T09:56:21.241Z,4.10
2022-11-05T09:59:01.495Z,3.80
2022-11-05T10:01:36.510Z,4.90
2022-11-05T10:04:20.571Z,3.90
2022-11-05T10:07:04.669Z,3.80
2022-11-05T10:09:46.367Z,5.33
2022-11-05T10:12:47.648Z,4.27
2022-11-05T10:15:23.797Z,4.00
2022-11-05T10:17:59.183Z,4.83
2022-11-05T10:20:36.550Z,4.10
2022-11-05T10:23:17.701Z,3.93
2022-11-05T10:25:55.975Z,3.83
2022-11-05T10:28:29.955Z,4.03
2022-11-05T10:31:07.369Z,4.10
2022-11-05T10:33:52.331Z,4.13
2022-11-05T10:36:29.770Z,4.40
2022-11-05T10:39:09.820Z,4.20
2022-11-05T10:41:54.148Z,4.03
2022-11-05T10:45:01.841Z,3.97
2022-11-05T10:47:52.998Z,5.23
2022-11-05T10:50:27.619Z,3.63
2022-11-05T10:53:15.658Z,3.93
2022-11-05T10:55:52.664Z,4.07
2022-11-05T10:58:29.987Z,3.63
2022-11-05T11:01:05.602Z,4.20
2022-11-05T11:03:39.290Z,3.70
2022-11-05T11:06:24.453Z,3.80
2022-11-05T11:08:58.878Z,3.87
2022-11-05T11:11:37.048Z,3.70
2022-11-05T11:14:11.827Z,3.77
2022-11-05T11:16:45.895Z,3.60
2022-11-05T11:19:20.662Z,3.77
2022-11-05T11:22:04.414Z,3.93
2022-11-05T11:24:46.929Z,3.70
2022-11-05T11:27:22.969Z,3.70
2022-11-05T11:30:05.429Z,3.40
2022-11-05T11:32:39.487Z,4.50
2022-11-05T11:35:22.786Z,3.20
2022-11-05T11:37:55.968Z,3.20
2022-11-05T11:40:33.533Z,3.23
2022-11-05T11:43:22.225Z,4.53
2022-11-05T11:45:57.344Z,3.23
2022-11-05T11:48:35.380Z,3.90
2022-11-05T11:51:19.384Z,3.20
2022-11-05T11:53:57.048Z,3.10
2022-11-05T11:56:30.367Z,3.60
2022-11-05T11:59:15.033Z,2.90
2022-11-05T12:01:55.908Z,3.50
2022-11-05T12:05:18.943Z,2.80
2022-11-05T12:07:54.226Z,3.30
2022-11-05T12:10:35.140Z,3.60
2022-11-05T12:13:19.231Z,3.60
2022-11-05T12:15:59.617Z,3.53
2022-11-05T12:18:38.315Z,3.07
2022-11-05T12:21:51.366Z,3.50
2022-11-05T12:25:00.928Z,3.70
2022-11-05T12:27:38.502Z,3.27
2022-11-05T12:30:19.424Z,3.40
2022-11-05T12:33:21.365Z,3.63
2022-11-05T12:36:02.614Z,2.80
2022-11-05T12:39:01.118Z,3.40
2022-11-05T12:41:57.523Z,3.60
2022-11-05T12:44:35.832Z,3.80
2022-11-05T12:47:26.213Z,3.50
2022-11-05T12:50:03.629Z,3.40
2022-11-05T12:52:45.668Z,3.57
2022-11-05T12:55:25.983Z,3.43
2022-11-05T12:58:10.290Z,3.40
2022-11-05T13:00:45.902Z,3.97
2022-11-05T13:03:23.714Z,4.67
2022-11-05T13:06:05.657Z,4.20
2022-11-05T13:08:48.638Z,3.20
2022-11-05T13:11:30.228Z,3.70
2022-11-05T13:14:42.436Z,3.07
2022-11-05T13:17:17.771Z,3.50
2022-11-05T13:19:54.422Z,2.90
2022-11-05T13:22:34.989Z,3.90
2022-11-05T13:25:28.243Z,3.20
2022-11-05T13:28:34.108Z,4.07
2022-11-05T13:31:10.854Z,3.80
2022-11-05T13:33:44.701Z,4.30
2022-11-05T13:36:56.518Z,4.23
2022-11-05T13:39:46.978Z,4.23
2022-11-05T13:42:37.148Z,4.17
2022-11-05T13:45:22.606Z,4.93
2022-11-05T13:47:59.082Z,3.80
2022-11-05T13:50:56.505Z,4.57
2022-11-05T13:54:03.441Z,4.10
2022-11-05T13:57:29.628Z,4.80
2022-11-05T14:00:21.671Z,4.43
2022-11-05T14:03:01.699Z,4.53
2022-11-05T14:05:36.403Z,5.27
2022-11-05T14:08:16.476Z,5.37
2022-11-05T14:11:05.861Z,5.03
2022-11-05T14:13:40.729Z,4.97
2022-11-05T14:16:21.130Z,4.33
2022-11-05T14:19:09.791Z,4.40
2022-11-05T14:21:48.568Z,4.77
2022-11-05T14:24:23.337Z,5.30
2022-11-05T14:27:01.288Z,4.87
2022-11-05T14:29:44.198Z,4.70
2022-11-05T14:32:21.723Z,4.90
2022-11-05T14:35:23.022Z,5.43
2022-11-05T14:37:56.287Z,5.53
2022-11-05T14:40:30.977Z,5.70
2022-11-05T14:43:15.571Z,4.60
2022-11-05T14:46:01.409Z,5.63
2022-11-05T14:48:40.324Z,4.63
2022-11-05T14:51:28.107Z,4.90
2022-11-05T14:54:07.023Z,4.33
2022-11-05T14:56:59.421Z,4.90
2022-11-05T14:59:51.629Z,4.93
2022-11-05T15:02:55.810Z,5.37
2022-11-05T15:05:51.951Z,4.73
2022-11-05T15:08:26.660Z,4.57
2022-11-05T15:11:13.075Z,5.00
2022-11-05T15:13:53.946Z,5.47
2022-11-05T15:16:30.826Z,5.33
2022-11-05T15:19:04.368Z,5.30
2022-11-05T15:21:37.169Z,5.10
2022-11-05T15:24:15.709Z,5.60
2022-11-05T15:27:04.890Z,5.23
2022-11-05T15:29:36.848Z,4.63
2022-11-05T15:32:19.477Z,6.00
2022-11-05T15:34:53.652Z,5.90
2022-11-05T15:37:26.869Z,5.50
2022-11-05T15:39:59.500Z,5.60
2022-11-05T15:42:31.631Z,5.20
2022-11-05T15:45:04.011Z,6.40
2022-11-05T15:47:36.263Z,5.50
2022-11-05T15:50:15.138Z,6.50
2022-11-05T15:52:53.858Z,5.97
2022-11-05T15:55:26.189Z,6.60
2022-11-05T15:58:06.835Z,5.90
2022-11-05T16:00:38.939Z,6.33
2022-11-05T16:03:27.942Z,5.80
2022-11-05T16:06:00.795Z,6.40
2022-11-05T16:08:33.482Z,5.70
2022-11-05T16:11:05.646Z,5.17
2022-11-05T16:13:40.172Z,5.60
2022-11-05T16:16:14.957Z,5.77
2022-11-05T16:18:47.085Z,5.90
2022-11-05T16:21:22.669Z,5.30
2022-11-05T16:23:59.554Z,5.87
2022-11-05T16:29:37.160Z,5.57
2022-11-05T16:32:18.750Z,6.23
2022-11-05T16:34:52.760Z,6.43
2022-11-05T16:37:25.752Z,5.70
2022-11-05T16:39:57.979Z,6.23
2022-11-05T16:42:32.640Z,5.90
2022-11-05T16:45:05.486Z,5.23
2022-11-05T16:47:37.801Z,5.40
2022-11-05T16:50:13.789Z,5.70
2022-11-05T16:52:46.370Z,6.27
2022-11-05T16:55:19.252Z,5.50
2022-11-05T16:57:54.781Z,6.40
2022-11-05T17:00:26.746Z,5.43
2022-11-05T17:02:59.022Z,5.70
2022-11-05T17:05:31.610Z,6.53
2022-11-05T17:08:04.049Z,6.30
2022-11-05T17:10:36.268Z,6.30
2022-11-05T17:13:10.323Z,6.03
2022-11-05T17:15:43.778Z,6.10
2022-11-05T17:18:18.848Z,8.13
2022-11-05T17:20:53.526Z,7.83
2022-11-05T17:23:26.796Z,6.70
2022-11-05T17:26:12.249Z,7.77
2022-11-05T17:28:44.319Z,6.70
2022-11-05T17:31:17.375Z,8.30
2022-11-05T17:33:49.208Z,7.43
2022-11-05T17:36:21.088Z,7.23
2022-11-05T17:38:53.515Z,7.00
2022-11-05T17:41:25.424Z,6.87
2022-11-05T17:43:57.567Z,8.57
2022-11-05T17:46:30.453Z,7.20
2022-11-05T17:49:02.334Z,7.87
2022-11-05T17:51:34.906Z,7.27
2022-11-05T17:54:07.554Z,7.90
2022-11-05T17:56:44.719Z,8.07
2022-11-05T17:59:17.236Z,7.40
2022-11-05T18:01:49.167Z,8.73
2022-11-05T18:04:21.070Z,8.60
2022-11-05T18:06:52.919Z,7.73
2022-11-05T18:09:24.871Z,7.63
2022-11-05T18:11:56.734Z,8.97
2022-11-05T18:14:28.626Z,8.47
2022-11-05T18:17:00.530Z,8.07
2022-11-05T18:19:32.507Z,8.10
2022-11-05T18:22:04.527Z,8.97
2022-11-05T18:24:36.472Z,8.67
2022-11-05T18:27:08.398Z,8.60
2022-11-05T18:29:40.915Z,8.57
2022-11-05T18:32:12.850Z,8.70
2022-11-05T18:34:44.925Z,7.70
2022-11-05T18:37:17.201Z,8.60
2022-11-05T18:39:52.640Z,9.33
2022-11-05T18:42:25.411Z,9.93
2022-11-05T18:44:57.426Z,8.97
2022-11-05T18:47:29.351Z,8.43
2022-11-05T18:50:01.637Z,7.93
2022-11-05T18:52:33.635Z,8.60
2022-11-05T18:55:06.107Z,8.07
2022-11-05T18:57:38.139Z,8.67
2022-11-05T19:00:10.942Z,8.00
2022-11-05T19:02:42.887Z,7.37
2022-11-05T19:05:28.649Z,7.73
2022-11-05T19:08:01.897Z,7.67
2022-11-05T19:10:33.664Z,8.20
2022-11-05T19:13:05.461Z,8.13
2022-11-05T19:15:37.424Z,7.80
2022-11-05T19:18:11.314Z,6.90
2022-11-05T19:20:43.674Z,8.47
2022-11-05T19:23:15.517Z,7.53
2022-11-05T19:25:47.443Z,8.20
2022-11-05T19:28:19.350Z,8.80
2022-11-05T19:30:51.287Z,7.60
2022-11-05T19:33:23.289Z,8.17
2022-11-05T19:35:55.658Z,8.33
2022-11-05T19:38:27.608Z,7.77
2022-11-05T19:41:10.438Z,8.23
2022-11-05T19:43:42.695Z,8.83
2022-11-05T19:46:17.519Z,9.20
2022-11-05T19:48:50.025Z,7.60
2022-11-05T19:51:26.629Z,8.30
2022-11-05T19:54:00.728Z,9.10
2022-11-05T19:56:34.438Z,9.60
2022-11-05T19:59:07.062Z,9.00
2022-11-05T20:01:39.019Z,9.07
2022-11-05T20:04:12.072Z,8.77
2022-11-05T20:06:43.996Z,9.70
2022-11-05T20:09:23.494Z,9.83
2022-11-05T20:11:56.634Z,9.83
2022-11-05T20:14:29.652Z,9.43
2022-11-05T20:17:01.546Z,8.73
2022-11-05T20:19:33.710Z,8.57
2022-11-05T20:22:05.548Z,9.43
2022-11-05T20:24:37.687Z,9.40
2022-11-05T20:27:09.595Z,8.67
2022-11-05T20:29:41.511Z,10.67
2022-11-05T20:32:14.238Z,10.30
2022-11-05T20:34:46.096Z,9.87
2022-11-05T20:37:18.224Z,10.43
2022-11-05T20:39:50.110Z,11.20
2022-11-05T20:42:21.972Z,11.93
2022-11-05T20:44:53.833Z,11.57
2022-11-05T20:47:25.688Z,11.30
2022-11-05T20:49:58.478Z,10.60
2022-11-05T20:52:30.426Z,11.20
2022-11-05T20:55:03.208Z,11.57
2022-11-05T20:57:37.184Z,10.07
2022-11-05T21:00:09.572Z,9.83
2022-11-05T21:02:41.910Z,9.93
2022-11-05T21:05:13.887Z,11.40
2022-11-05T21:07:45.716Z,11.47
2022-11-05T21:10:17.703Z,10.90
2022-11-05T21:12:49.698Z,9.87
2022-11-05T21:15:23.140Z,10.43
2022-11-05T21:17:54.945Z,11.50
2022-11-05T21:20:27.008Z,10.07
2022-11-05T21:22:58.880Z,10.00
2022-11-05T21:25:30.735Z,9.67
2022-11-05T21:28:02.610Z,10.00
2022-11-05T21:30:36.796Z,10.00
2022-11-05T21:33:08.997Z,9.80
2022-11-05T21:35:45.417Z,9.50
2022-11-05T21:38:17.571Z,9.43
2022-11-05T21:40:49.555Z,8.50
2022-11-05T21:43:21.459Z,8.70
2022-11-05T21:45:53.634Z,8.33
2022-11-05T21:48:25.691Z,9.20
2022-11-05T21:51:16.375Z,8.57
2022-11-05T21:54:06.811Z,9.47
2022-11-05T21:56:57.577Z,10.17
2022-11-05T21:59:48.294Z,9.27
2022-11-05T22:02:22.710Z,9.80
2022-11-05T22:04:57.222Z,9.43
2022-11-05T22:07:31.954Z,8.93
2022-11-05T22:10:09.665Z,9.57
2022-11-05T22:12:45.000Z,10.50
2022-11-05T22:15:16.932Z,9.27
2022-11-05T22:17:50.600Z,9.53
2022-11-05T22:20:22.399Z,8.80
2022-11-05T22:22:55.018Z,8.80
2022-11-05T22:25:26.762Z,8.70
2022-11-05T22:27:58.567Z,8.30
2022-11-05T22:30:34.569Z,8.33
2022-11-05T22:33:06.448Z,7.37
2022-11-05T22:35:39.316Z,8.00
2022-11-05T22:38:12.657Z,7.40
2022-11-05T22:40:44.833Z,7.37
2022-11-05T22:43:16.896Z,7.60
2022-11-05T22:45:48.803Z,7.80
2022-11-05T22:48:20.705Z,7.80
2022-11-05T22:50:52.625Z,7.40
2022-11-05T22:53:24.559Z,7.60
2022-11-05T22:55:56.452Z,7.17
2022-11-05T22:58:28.217Z,6.53
2022-11-05T23:01:01.006Z,6.77
2022-11-05T23:03:33.396Z,6.80
2022-11-05T23:06:35.001Z,6.87
2022-11-05T23:09:42.087Z,6.93
2022-11-05T23:12:33.166Z,7.80
2022-11-05T23:15:07.153Z,6.57
2022-11-05T23:17:57.650Z,6.60
2022-11-05T23:20:48.133Z,8.03
2022-11-05T23:23:38.658Z,9.37
2022-11-05T23:26:29.417Z,6.30
2022-11-05T23:29:01.336Z,6.97
2022-11-05T23:31:51.625Z,7.40
2022-11-05T23:34:23.532Z,7.10
2022-11-05T23:37:13.705Z,7.20
2022-11-05T23:39:48.997Z,7.00
2022-11-05T23:42:39.756Z,6.60
2022-11-05T23:45:30.679Z,6.20
2022-11-05T23:48:19.180Z,6.60
2022-11-05T23:51:05.923Z,7.10
2022-11-05T23:53:40.108Z,6.47
2022-11-05T23:56:14.620Z,6.87
2022-11-05T23:58:46.582Z,5.63
